Time;durP1;ratioP1;P1;durP2;ratioP2;P2;SDS_P1;SDS_P2;PMS_P1;PMS_P2;Temp;Humidity;BMP_temperature;BMP_pressure;BME280_temperature;BME280_humidity;BME280_pressure;Samples;Min_cycle;Max_cycle;Signal;HPM_P1;HPM_P2
2021/01/13 00:01:29;;;;;;;;;;;;;;;23.99;29.78;100666.81;5083807;28;1180;-50
2021/01/13 00:03:55;;;;;;;;;;;;;;;23.97;29.26;100676.88;5079981;28;1105;-54
2021/01/13 00:06:20;;;;;;;;;;;;;;;23.91;29.28;100668.91;5085723;28;1147;-52
2021/01/13 00:08:45;;;;;;;;;;;;;;;23.89;29.39;100669.09;5084545;28;1272;-56
2021/01/13 00:11:13;;;;;;;;;;;;;;;23.89;29.44;100669.09;5086965;28;1132;-51
2021/01/13 00:13:38;;;;;;;;;;;;;;;23.90;29.37;100675.28;5091201;28;1068;-55
2021/01/13 00:16:03;;;;;;;;;;;;;;;23.95;29.83;100670.91;5080723;28;1980;-53
2021/01/13 00:18:28;;;;;;;;;;;;;;;23.95;29.68;100683.50;5087294;28;1308;-52
2021/01/13 00:20:54;;;;;;;;;;;;;;;23.94;29.49;100677.31;5083338;28;1163;-52
2021/01/13 00:23:19;;;;;;;;;;;;;;;23.95;29.64;100686.97;5090909;28;1133;-55
2021/01/13 00:25:44;;;;;;;;;;;;;;;23.97;29.78;100698.31;5085759;28;1214;-53
2021/01/13 00:28:10;;;;;;;;;;;;;;;23.99;29.93;100700.78;5079188;28;1437;-51
2021/01/13 00:30:35;;;;;;;;;;;;;;;24.00;29.98;100707.81;5085657;28;1019;-49
2021/01/13 00:33:00;;;;;;;;;;;;;;;24.03;29.85;100712.75;5082724;28;1089;-51
2021/01/13 00:35:25;;;;;;;;;;;;;;;24.02;30.10;100702.22;5079678;28;1906;-51
2021/01/13 00:37:50;;;;;;;;;;;;;;;24.03;30.18;100699.34;5061703;28;1682;-54
2021/01/13 00:40:16;;;;;;;;;;;;;;;24.08;30.28;100704.88;5060795;28;1300;-56
2021/01/13 00:42:41;;;;;;;;;;;;;;;24.06;30.44;100703.44;5064366;28;1422;-53
2021/01/13 00:45:07;;;;;;;;;;;;;;;24.06;30.45;100709.63;5068276;28;1201;-51
2021/01/13 00:47:32;;;;;;;;;;;;;;;24.09;30.46;100706.53;5076374;28;1221;-57
2021/01/13 00:49:57;;;;;;;;;;;;;;;24.08;30.48;100715.59;5072914;28;1363;-53
2021/01/13 00:52:22;;;;;;;;;;;;;;;24.06;30.26;100714.16;5062948;28;1130;-55
2021/01/13 00:54:47;;;;;;;;;;;;;;;24.08;30.39;100709.41;5060048;28;1898;-56
2021/01/13 00:57:13;;;;;;;;;;;;;;;24.10;30.43;100718.88;5061244;28;1495;-58
2021/01/13 00:59:38;;;;;;;;;;;;;;;24.10;30.57;100715.38;5057139;28;1376;-56
2021/01/13 01:02:03;;;;;;;;;;;;;;;24.09;30.28;100721.75;5056716;28;1206;-57
2021/01/13 01:04:28;;;;;;;;;;;;;;;24.10;30.24;100710.03;5060202;28;1071;-56
2021/01/13 01:06:53;;;;;;;;;;;;;;;24.09;30.24;100716.41;5056694;28;1174;-54
2021/01/13 01:09:18;;;;;;;;;;;;;;;24.08;30.19;100723.63;5064368;28;1308;-57
2021/01/13 01:11:44;;;;;;;;;;;;;;;24.10;30.56;100718.06;5061619;28;1390;-55
2021/01/13 01:14:10;;;;;;;;;;;;;;;24.12;30.59;100729.38;5057239;28;1233;-53
2021/01/13 01:16:36;;;;;;;;;;;;;;;24.12;30.56;100722.19;5058166;28;2024;-60
2021/01/13 01:19:02;;;;;;;;;;;;;;;24.12;30.38;100727.53;5059513;28;1765;-62
2021/01/13 01:21:27;;;;;;;;;;;;;;;24.16;30.31;100733.28;5053231;28;1158;-57
2021/01/13 01:23:53;;;;;;;;;;;;;;;24.18;30.25;100730.41;5054888;28;1328;-61
2021/01/13 01:26:18;;;;;;;;;;;;;;;24.19;30.18;100735.53;5054151;28;1237;-61
2021/01/13 01:28:43;;;;;;;;;;;;;;;24.19;30.36;100734.72;5053244;28;1244;-62
2021/01/13 01:31:08;;;;;;;;;;;;;;;24.21;30.05;100748.72;5051920;28;1391;-60
2021/01/13 01:33:34;;;;;;;;;;;;;;;24.17;30.17;100742.94;5068403;28;1003;-62
2021/01/13 01:35:59;;;;;;;;;;;;;;;24.19;30.40;100748.09;5073923;28;1898;-61
2021/01/13 01:38:24;;;;;;;;;;;;;;;24.13;30.36;100739.88;5080813;28;1266;-61
2021/01/13 01:40:49;;;;;;;;;;;;;;;24.13;30.34;100744.41;5087682;28;1242;-59
2021/01/13 01:43:14;;;;;;;;;;;;;;;24.11;30.50;100741.13;5082520;28;1148;-62
2021/01/13 01:45:40;;;;;;;;;;;;;;;24.10;30.59;100742.16;5086210;28;1241;-60
2021/01/13 01:48:05;;;;;;;;;;;;;;;24.06;30.66;100738.25;5083369;28;1291;-60
2021/01/13 01:50:34;;;;;;;;;;;;;;;24.04;30.65;100748.38;5080444;28;1206;-62
2021/01/13 01:53:17;;;;;;;;;;;;;;;24.00;30.63;100756.81;5080749;28;1885;-61
2021/01/13 01:55:49;;;;;;;;;;;;;;;23.98;30.85;100766.09;5079362;28;1960;-62
2021/01/13 01:58:22;;;;;;;;;;;;;;;23.98;30.63;100758.84;5085161;28;1303;-61
2021/01/13 02:00:47;;;;;;;;;;;;;;;23.98;30.87;100756.19;5074853;28;1519;-62
2021/01/13 02:03:13;;;;;;;;;;;;;;;23.97;30.63;100754.53;5070631;28;1445;-61
2021/01/13 02:05:39;;;;;;;;;;;;;;;23.97;30.62;100745.69;5070932;28;1297;-62
2021/01/13 02:08:04;;;;;;;;;;;;;;;23.95;30.63;100755.78;5083301;28;1389;-61
2021/01/13 02:10:29;;;;;;;;;;;;;;;23.91;30.85;100755.38;5082816;28;1143;-62
2021/01/13 02:13:03;;;;;;;;;;;;;;;23.90;30.95;100758.28;5083659;28;1153;-60
2021/01/13 02:15:28;;;;;;;;;;;;;;;23.88;30.97;100755.81;5077955;28;1894;-61
2021/01/13 02:17:54;;;;;;;;;;;;;;;23.86;31.00;100755.19;5084571;28;1406;-61
2021/01/13 02:20:23;;;;;;;;;;;;;;;23.85;31.12;100762.41;5079159;28;1235;-61
2021/01/13 02:22:53;;;;;;;;;;;;;;;23.84;30.82;100751.91;5086373;28;1098;-62
2021/01/13 02:25:24;;;;;;;;;;;;;;;23.84;30.81;100751.91;5079753;28;1199;-61
2021/01/13 02:28:03;;;;;;;;;;;;;;;23.82;30.92;100752.09;5085742;28;1299;-61
2021/01/13 02:30:52;;;;;;;;;;;;;;;23.82;31.28;100746.75;5080347;28;1369;-61
2021/01/13 02:33:43;;;;;;;;;;;;;;;23.81;30.98;100753.13;5071603;28;1011;-61
2021/01/13 02:36:16;;;;;;;;;;;;;;;23.80;31.14;100753.34;5076209;28;1898;-62
2021/01/13 02:38:42;;;;;;;;;;;;;;;23.79;31.31;100751.72;5081370;28;1322;-62
2021/01/13 02:41:12;;;;;;;;;;;;;;;23.79;31.28;100749.03;5082951;28;1021;-62
2021/01/13 02:43:45;;;;;;;;;;;;;;;23.77;31.08;100757.25;5081594;28;1111;-60
2021/01/13 02:46:15;;;;;;;;;;;;;;;23.77;31.27;100751.09;5078278;28;1135;-61
2021/01/13 02:48:40;;;;;;;;;;;;;;;23.78;31.30;100750.06;5074193;28;1325;-62
2021/01/13 02:51:13;;;;;;;;;;;;;;;23.77;31.15;100743.88;5078181;28;1651;-62
2021/01/13 02:53:48;;;;;;;;;;;;;;;23.77;31.28;100751.91;5086724;28;1014;-62
2021/01/13 02:56:24;;;;;;;;;;;;;;;23.75;31.32;100748.63;5076504;28;1989;-62
2021/01/13 02:58:51;;;;;;;;;;;;;;;23.73;31.29;100739.97;5088129;28;1328;-62
2021/01/13 03:01:16;;;;;;;;;;;;;;;23.75;31.38;100753.16;5079805;28;1121;-62
2021/01/13 03:03:43;;;;;;;;;;;;;;;23.75;31.02;100747.81;5080359;28;1493;-62
2021/01/13 03:06:09;;;;;;;;;;;;;;;23.75;31.17;100750.50;5079145;28;1560;-62
2021/01/13 03:08:43;;;;;;;;;;;;;;;23.71;31.37;100748.22;5080022;28;1391;-61
2021/01/13 03:11:11;;;;;;;;;;;;;;;23.72;31.23;100754.38;5073687;28;1153;-62
2021/01/13 03:13:43;;;;;;;;;;;;;;;23.73;31.16;100757.91;5075711;28;1179;-61
2021/01/13 03:16:08;;;;;;;;;;;;;;;23.75;31.23;100758.53;5069541;28;1910;-62
2021/01/13 03:18:41;;;;;;;;;;;;;;;23.75;31.40;100761.19;5084535;28;1315;-62
2021/01/13 03:21:08;;;;;;;;;;;;;;;23.76;31.18;100758.28;5064267;28;1207;-62
2021/01/13 03:23:40;;;;;;;;;;;;;;;23.76;31.20;100760.16;5076257;28;1696;-62
2021/01/13 03:26:07;;;;;;;;;;;;;;;23.76;31.15;100758.28;5080072;28;1532;-62
2021/01/13 03:28:37;;;;;;;;;;;;;;;23.76;31.17;100754.81;5085730;28;1299;-62
2021/01/13 03:31:03;;;;;;;;;;;;;;;23.75;31.13;100753.97;5068630;28;1489;-62
2021/01/13 03:33:34;;;;;;;;;;;;;;;23.73;31.08;100761.38;5083422;28;1029;-62
2021/01/13 03:36:05;;;;;;;;;;;;;;;23.73;31.34;100760.59;5074614;28;1959;-62
2021/01/13 03:38:31;;;;;;;;;;;;;;;23.71;31.42;100764.28;5079756;28;1821;-59
2021/01/13 03:41:03;;;;;;;;;;;;;;;23.70;31.40;100757.28;5085547;28;1149;-62
2021/01/13 03:43:33;;;;;;;;;;;;;;;23.71;31.21;100766.13;5086777;28;1034;-62
2021/01/13 03:46:02;;;;;;;;;;;;;;;23.70;31.46;100762.66;5078764;28;1159;-62
2021/01/13 03:48:36;;;;;;;;;;;;;;;23.69;31.18;100766.34;5086198;28;1326;-62
2021/01/13 03:51:01;;;;;;;;;;;;;;;23.70;31.29;100764.47;5071781;28;1367;-62
2021/01/13 03:53:28;;;;;;;;;;;;;;;23.70;31.27;100765.31;5086746;28;1136;-62
2021/01/13 03:55:54;;;;;;;;;;;;;;;23.71;31.27;100769.66;5080576;28;1897;-62
2021/01/13 03:58:38;;;;;;;;;;;;;;;23.71;31.07;100777.66;5069591;28;1583;-62
2021/01/13 04:01:05;;;;;;;;;;;;;;;23.71;31.42;100780.34;5080869;28;1004;-62
2021/01/13 04:03:30;;;;;;;;;;;;;;;23.71;31.47;100784.88;5086588;28;1140;-62
2021/01/13 04:06:11;;;;;;;;;;;;;;;23.71;31.48;100784.88;5078178;28;1174;-62
2021/01/13 04:08:38;;;;;;;;;;;;;;;23.70;31.40;100778.69;5089320;28;1304;-62
2021/01/13 04:11:05;;;;;;;;;;;;;;;23.70;31.48;100776.03;5079240;28;1464;-62
2021/01/13 04:13:37;;;;;;;;;;;;;;;23.68;31.34;100780.78;5085176;28;1631;-61
2021/01/13 04:16:03;;;;;;;;;;;;;;;23.68;31.44;100779.94;5079915;28;1962;-62
2021/01/13 04:18:28;;;;;;;;;;;;;;;23.67;31.49;100787.16;5086144;28;1218;-62
2021/01/13 04:20:53;;;;;;;;;;;;;;;23.68;31.37;100780.78;5084733;28;1129;-62
2021/01/13 04:23:19;;;;;;;;;;;;;;;23.69;31.34;100779.72;5084252;28;1476;-62
2021/01/13 04:25:44;;;;;;;;;;;;;;;23.70;31.52;100786.72;5080536;28;1360;-62
2021/01/13 04:28:10;;;;;;;;;;;;;;;23.68;31.30;100780.78;5083829;28;1531;-62
2021/01/13 04:30:35;;;;;;;;;;;;;;;23.69;31.31;100785.09;5085492;28;1073;-62
2021/01/13 04:33:01;;;;;;;;;;;;;;;23.69;31.59;100774.38;5084478;28;1198;-62
2021/01/13 04:35:26;;;;;;;;;;;;;;;23.68;31.53;100780.78;5084266;28;1890;-62
2021/01/13 04:37:52;;;;;;;;;;;;;;;23.69;31.41;100782.41;5084936;28;1366;-62
2021/01/13 04:40:30;;;;;;;;;;;;;;;23.70;31.36;100778.69;5083252;28;1240;-63
2021/01/13 04:43:01;;;;;;;;;;;;;;;23.70;31.62;100783.22;5082020;28;1033;-62
2021/01/13 04:45:36;;;;;;;;;;;;;;;23.69;31.40;100784.25;5084563;28;1156;-62
2021/01/13 04:48:05;;;;;;;;;;;;;;;23.68;31.28;100791.47;5077563;28;1353;-63
2021/01/13 04:50:33;;;;;;;;;;;;;;;23.69;31.46;100792.28;5088327;28;1141;-62
2021/01/13 04:52:59;;;;;;;;;;;;;;;23.69;31.55;100797.63;5082079;28;1113;-63
2021/01/13 04:55:26;;;;;;;;;;;;;;;23.69;31.56;100803.81;5077807;28;1943;-61
2021/01/13 04:58:10;;;;;;;;;;;;;;;23.66;31.38;100798.88;5087441;28;1275;-62
2021/01/13 05:00:44;;;;;;;;;;;;;;;23.67;31.63;100789.81;5078059;28;1011;-62
2021/01/13 05:03:28;;;;;;;;;;;;;;;23.68;31.55;100804.03;5075966;28;1169;-62
2021/01/13 05:06:06;;;;;;;;;;;;;;;23.68;31.48;100798.66;5081631;28;1155;-62
2021/01/13 05:08:31;;;;;;;;;;;;;;;23.69;31.41;100803.81;5087976;28;1341;-62
2021/01/13 05:11:03;;;;;;;;;;;;;;;23.68;31.61;100807.53;5077950;28;1290;-61
2021/01/13 05:13:32;;;;;;;;;;;;;;;23.68;31.50;100794.16;5072011;28;1894;-62
2021/01/13 05:15:58;;;;;;;;;;;;;;;23.69;31.50;100795.78;5069744;28;1969;-62
2021/01/13 05:18:38;;;;;;;;;;;;;;;23.68;31.68;100799.50;5057121;28;1453;-62
2021/01/13 05:21:15;;;;;;;;;;;;;;;23.67;31.47;100791.66;5076659;28;1338;-62
2021/01/13 05:23:43;;;;;;;;;;;;;;;23.67;31.61;100795.19;5084538;28;1088;-61
2021/01/13 05:26:15;;;;;;;;;;;;;;;23.69;31.61;100798.47;5086969;28;1361;-62
2021/01/13 05:28:52;;;;;;;;;;;;;;;23.69;31.44;100798.47;5084127;28;1328;-62
2021/01/13 05:31:23;;;;;;;;;;;;;;;23.68;31.68;100807.53;5084813;28;1057;-61
2021/01/13 05:33:49;;;;;;;;;;;;;;;23.68;31.55;100802.19;5082354;28;1085;-61
2021/01/13 05:36:16;;;;;;;;;;;;;;;23.69;31.79;100802.97;5077492;28;1897;-61
2021/01/13 05:39:00;;;;;;;;;;;;;;;23.67;31.75;100797.03;5066391;28;1301;-62
2021/01/13 05:41:25;;;;;;;;;;;;;;;23.67;31.80;100797.03;5083390;28;1495;-62
2021/01/13 05:43:50;;;;;;;;;;;;;;;23.65;31.56;100789.22;5082584;28;1124;-62
2021/01/13 05:46:16;;;;;;;;;;;;;;;23.66;31.77;100792.69;5080712;28;1487;-60
2021/01/13 05:48:49;;;;;;;;;;;;;;;23.65;31.92;100789.22;5066927;28;1282;-61
2021/01/13 05:51:14;;;;;;;;;;;;;;;23.65;31.81;100793.72;5078197;28;1086;-62
2021/01/13 05:53:49;;;;;;;;;;;;;;;23.63;31.71;100790.44;5074702;28;1182;-62
2021/01/13 05:56:16;;;;;;;;;;;;;;;23.59;32.05;100789.22;5078768;28;1898;-62
2021/01/13 05:58:41;;;;;;;;;;;;;;;23.59;31.82;100787.38;5079970;28;1292;-62
2021/01/13 06:01:17;;;;;;;;;;;;;;;23.62;31.78;100786.97;5080341;28;1156;-61
2021/01/13 06:03:45;;;;;;;;;;;;;;;23.62;32.06;100786.97;5077936;28;1143;-60
2021/01/13 06:06:10;;;;;;;;;;;;;;;23.59;32.08;100798.06;5055218;28;1146;-61
2021/01/13 06:08:41;;;;;;;;;;;;;;;23.57;31.89;100802.81;5060440;28;1351;-62
2021/01/13 06:11:09;;;;;;;;;;;;;;;23.56;31.85;100811.88;5054727;28;1257;-61
2021/01/13 06:13:35;;;;;;;;;;;;;;;23.56;32.14;100804.66;5065049;28;1352;-60
2021/01/13 06:16:01;;;;;;;;;;;;;;;23.57;31.99;100805.50;5075059;28;1906;-62
2021/01/13 06:18:26;;;;;;;;;;;;;;;23.52;31.82;100803.41;5084673;28;1312;-62
2021/01/13 06:20:54;;;;;;;;;;;;;;;23.49;32.32;100803.03;5058892;28;1891;-62
2021/01/13 06:23:21;;;;;;;;;;;;;;;23.49;32.00;100795.81;5056966;28;1197;-62
2021/01/13 06:25:51;;;;;;;;;;;;;;;23.53;32.22;100798.91;5058454;28;1252;-61
2021/01/13 06:28:23;;;;;;;;;;;;;;;23.54;32.06;100803.22;5059786;28;1357;-61
2021/01/13 06:30:59;;;;;;;;;;;;;;;23.54;32.04;100793.34;5063603;28;1210;-61
2021/01/13 06:33:25;;;;;;;;;;;;;;;23.55;32.10;100789.63;5059523;28;1300;-62
2021/01/13 06:35:56;;;;;;;;;;;;;;;23.56;31.96;100801.16;5064027;28;1901;-62
2021/01/13 06:38:25;;;;;;;;;;;;;;;23.56;32.34;100798.50;5061864;28;1388;-61
2021/01/13 06:40:57;;;;;;;;;;;;;;;23.58;32.20;100814.31;5063761;28;1166;-62
2021/01/13 06:43:23;;;;;;;;;;;;;;;23.56;32.38;100804.66;5060095;28;1182;-61
2021/01/13 06:45:48;;;;;;;;;;;;;;;23.57;32.40;100805.50;5062421;28;1201;-62
2021/01/13 06:48:13;;;;;;;;;;;;;;;23.57;32.33;100813.50;5072662;28;1294;-62
2021/01/13 06:50:39;;;;;;;;;;;;;;;23.58;32.37;100819.69;5086504;28;1108;-62
2021/01/13 06:53:05;;;;;;;;;;;;;;;23.56;32.23;100818.03;5076652;28;1124;-61
2021/01/13 06:55:31;;;;;;;;;;;;;;;23.58;32.49;100819.69;5086592;28;1885;-62
2021/01/13 06:58:06;;;;;;;;;;;;;;;23.59;32.29;100822.16;5081172;28;1394;-61
2021/01/13 07:00:31;;;;;;;;;;;;;;;23.59;32.59;100814.13;5062753;28;1207;-62
2021/01/13 07:02:57;;;;;;;;;;;;;;;23.60;32.28;100817.63;5080365;28;1218;-62
2021/01/13 07:05:32;;;;;;;;;;;;;;;23.59;32.49;100821.31;5084917;28;1137;-62
2021/01/13 07:08:01;;;;;;;;;;;;;;;23.59;32.42;100819.50;5084456;28;1377;-62
2021/01/13 07:10:26;;;;;;;;;;;;;;;23.59;32.40;100824.84;5083195;28;1164;-62
2021/01/13 07:12:53;;;;;;;;;;;;;;;23.59;32.42;100827.50;5078477;28;1123;-62
2021/01/13 07:15:18;;;;;;;;;;;;;;;23.58;32.42;100823.19;5083368;28;1901;-63
2021/01/13 07:17:44;;;;;;;;;;;;;;;23.60;32.38;100820.28;5077304;28;1286;-63
2021/01/13 07:20:09;;;;;;;;;;;;;;;23.59;32.46;100815.97;5088352;28;1163;-61
2021/01/13 07:22:35;;;;;;;;;;;;;;;23.59;32.48;100818.66;5083854;28;1073;-62
2021/01/13 07:25:00;;;;;;;;;;;;;;;23.58;32.33;100823.19;5076210;28;1082;-62
2021/01/13 07:27:27;;;;;;;;;;;;;;;23.60;32.45;100814.94;5077524;28;1198;-61
2021/01/13 07:29:54;;;;;;;;;;;;;;;23.59;32.39;100814.13;5091350;28;1272;-62
2021/01/13 07:32:20;;;;;;;;;;;;;;;23.61;32.67;100824.63;5073936;28;1149;-62
2021/01/13 07:34:50;;;;;;;;;;;;;;;23.61;32.59;100832.63;5085111;28;1082;-62
2021/01/13 07:37:23;;;;;;;;;;;;;;;23.60;32.68;100833.66;5083503;28;1317;-62
2021/01/13 07:39:54;;;;;;;;;;;;;;;23.60;32.65;100833.66;5082629;28;1242;-63
2021/01/13 07:42:31;;;;;;;;;;;;;;;23.61;32.72;100840.66;5079886;28;1356;-63
2021/01/13 07:45:03;;;;;;;;;;;;;;;23.59;32.47;100840.91;5086064;28;1101;-62
2021/01/13 07:47:48;;;;;;;;;;;;;;;23.61;32.65;100844.19;5057069;28;1849;-62
2021/01/13 07:50:15;;;;;;;;;;;;;;;23.61;32.57;100838.00;5061543;28;2255;-62
2021/01/13 07:52:44;;;;;;;;;;;;;;;23.60;32.51;100837.19;5076115;28;1215;-63
2021/01/13 07:55:14;;;;;;;;;;;;;;;23.59;32.64;100835.53;5085083;28;1890;-62
2021/01/13 07:57:45;;;;;;;;;;;;;;;23.59;32.62;100832.88;5064827;28;1276;-61
2021/01/13 08:00:13;;;;;;;;;;;;;;;23.59;32.75;100845.41;5064287;28;1477;-62
2021/01/13 08:02:57;;;;;;;;;;;;;;;23.59;32.47;100840.06;5076274;28;1860;-61
2021/01/13 08:05:31;;;;;;;;;;;;;;;23.58;32.54;100846.44;5068818;28;1016;-62
2021/01/13 08:08:07;;;;;;;;;;;;;;;23.57;32.29;100848.31;5072983;28;1287;-63
2021/01/13 08:10:35;;;;;;;;;;;;;;;23.58;32.04;100846.44;5069401;28;1120;-62
2021/01/13 08:13:00;;;;;;;;;;;;;;;23.58;31.69;100849.94;5072670;28;1231;-63
2021/01/13 08:15:44;;;;;;;;;;;;;;;23.58;31.71;100849.94;5079456;28;1959;-63
2021/01/13 08:18:29;;;;;;;;;;;;;;;23.59;31.65;100851.59;5074854;28;1302;-62
2021/01/13 08:21:15;;;;;;;;;;;;;;;23.58;31.83;100855.31;5088561;28;1970;-61
2021/01/13 08:23:47;;;;;;;;;;;;;;;23.60;31.45;100857.75;5079848;28;1019;-61
2021/01/13 08:26:12;;;;;;;;;;;;;;;23.58;31.47;100847.28;5076246;28;1245;-62
2021/01/13 08:28:39;;;;;;;;;;;;;;;23.56;31.38;100852.00;5071778;28;1306;-61
2021/01/13 08:31:05;;;;;;;;;;;;;;;23.56;31.30;100862.72;5069056;28;1352;-62
2021/01/13 08:33:32;;;;;;;;;;;;;;;23.56;31.45;100862.72;5068084;28;1678;-62
2021/01/13 08:36:01;;;;;;;;;;;;;;;23.55;31.49;100863.75;5073672;28;1897;-62
2021/01/13 08:38:26;;;;;;;;;;;;;;;23.54;31.55;100859.41;5069304;28;1385;-60
2021/01/13 08:40:52;;;;;;;;;;;;;;;23.56;31.24;100868.06;5073555;28;871;-62
2021/01/13 08:43:18;;;;;;;;;;;;;;;23.56;31.24;100862.72;5079278;28;1076;-62
2021/01/13 08:45:45;;;;;;;;;;;;;;;23.55;31.35;100855.72;5073620;28;1120;-64
2021/01/13 08:48:14;;;;;;;;;;;;;;;23.57;31.80;100864.38;5079863;28;1389;-60
2021/01/13 08:50:41;;;;;;;;;;;;;;;23.59;31.64;100864.13;5065345;28;1250;-65
2021/01/13 08:53:07;;;;;;;;;;;;;;;23.59;31.59;100854.28;5073189;28;1112;-64
2021/01/13 08:55:33;;;;;;;;;;;;;;;23.61;31.76;100854.88;5077180;28;1971;-65
2021/01/13 08:57:58;;;;;;;;;;;;;;;23.62;31.56;100856.53;5087265;28;1308;-67
2021/01/13 09:00:24;;;;;;;;;;;;;;;23.65;31.86;100860.63;5070892;28;1274;-62
2021/01/13 09:02:59;;;;;;;;;;;;;;;23.65;31.70;100864.16;5091617;28;1120;-62
2021/01/13 09:05:32;;;;;;;;;;;;;;;23.64;31.70;100857.16;5065532;28;1456;-62
2021/01/13 09:07:59;;;;;;;;;;;;;;;23.65;31.93;100860.63;5076495;28;1478;-60
2021/01/13 09:10:45;;;;;;;;;;;;;;;23.65;31.63;100860.63;5059540;28;1534;-58
2021/01/13 09:13:29;;;;;;;;;;;;;;;23.65;31.49;100871.34;5064726;28;1109;-59
2021/01/13 09:15:54;;;;;;;;;;;;;;;23.67;31.53;100869.28;5063384;28;1961;-59
2021/01/13 09:18:21;;;;;;;;;;;;;;;23.68;31.47;100866.41;5073146;28;1243;-62
2021/01/13 09:20:48;;;;;;;;;;;;;;;23.70;31.67;100869.72;5071522;28;1341;-48
2021/01/13 09:23:20;;;;;;;;;;;;;;;23.75;31.76;100863.72;5073427;28;1906;-52
2021/01/13 09:25:51;;;;;;;;;;;;;;;23.76;31.55;100861.88;5074318;28;1175;-51
2021/01/13 09:28:18;;;;;;;;;;;;;;;23.81;31.65;100857.53;5084424;28;1353;-54
2021/01/13 09:30:44;;;;;;;;;;;;;;;23.85;31.60;100860.63;5073283;28;1187;-51
2021/01/13 09:33:10;;;;;;;;;;;;;;;23.88;31.60;100859.41;5086297;28;1195;-53
2021/01/13 09:35:40;;;;;;;;;;;;;;;23.89;31.42;100859.19;5072883;28;1949;-52
2021/01/13 09:38:08;;;;;;;;;;;;;;;23.92;31.44;100860.63;5073464;28;1197;-52
2021/01/13 09:40:50;;;;;;;;;;;;;;;23.92;31.22;100863.31;5061728;28;1183;-49
2021/01/13 09:43:35;;;;;;;;;;;;;;;23.93;31.34;100863.09;5057853;28;1205;-51
2021/01/13 09:46:02;;;;;;;;;;;;;;;23.94;31.53;100859.38;5061098;28;1139;-48
2021/01/13 09:48:28;;;;;;;;;;;;;;;23.99;31.36;100867.66;5058026;28;1255;-52
2021/01/13 09:50:58;;;;;;;;;;;;;;;24.02;31.46;100871.78;5042168;28;1258;-53
2021/01/13 09:53:27;;;;;;;;;;;;;;;24.08;31.60;100870.09;5051697;28;1292;-56
2021/01/13 09:55:53;;;;;;;;;;;;;;;24.10;31.42;100873.38;5053590;28;1898;-50
2021/01/13 09:58:27;;;;;;;;;;;;;;;24.11;31.15;100875.03;5052597;28;1320;-51
2021/01/13 10:00:55;;;;;;;;;;;;;;;24.14;31.21;100877.28;5053307;28;1188;-53
2021/01/13 10:03:28;;;;;;;;;;;;;;;24.14;31.23;100866.59;5052430;28;1166;-51
2021/01/13 10:05:55;;;;;;;;;;;;;;;24.13;31.32;100868.44;5067574;28;1701;-55
2021/01/13 10:08:28;;;;;;;;;;;;;;;24.16;31.11;100871.75;5080438;28;1346;-56
2021/01/13 10:10:55;;;;;;;;;;;;;;;24.17;31.23;100871.53;5078671;28;1519;-54
2021/01/13 10:13:21;;;;;;;;;;;;;;;24.18;30.98;100870.47;5067959;28;1179;-55
2021/01/13 10:15:47;;;;;;;;;;;;;;;24.18;30.91;100867.81;5041751;28;1894;-51
2021/01/13 10:18:12;;;;;;;;;;;;;;;24.18;33.05;100862.44;5066164;28;1280;-55
2021/01/13 10:20:37;;;;;;;;;;;;;;;24.19;31.83;100869.44;5047493;28;1436;-55
2021/01/13 10:23:03;;;;;;;;;;;;;;;24.20;30.84;100868.41;5039657;28;1483;-54
2021/01/13 10:25:29;;;;;;;;;;;;;;;24.21;31.04;100862.03;5051854;28;1236;-56
2021/01/13 10:27:55;;;;;;;;;;;;;;;24.28;30.75;100864.69;5052061;28;1335;-57
2021/01/13 10:30:20;;;;;;;;;;;;;;;24.31;30.96;100861.59;5051763;28;1233;-58
2021/01/13 10:32:50;;;;;;;;;;;;;;;24.35;31.30;100867.34;5055580;28;1097;-57
2021/01/13 10:35:16;;;;;;;;;;;;;;;24.37;31.32;100854.56;5080697;28;1961;-55
2021/01/13 10:37:48;;;;;;;;;;;;;;;24.41;31.23;100839.69;5089337;28;1241;-51
2021/01/13 10:40:15;;;;;;;;;;;;;;;24.43;31.78;100840.31;5081145;28;1196;-54
2021/01/13 10:42:42;;;;;;;;;;;;;;;24.44;31.63;100842.78;5059241;28;1258;-55
2021/01/13 10:45:13;;;;;;;;;;;;;;;24.46;31.31;100837.22;5068422;28;1424;-54
2021/01/13 10:47:44;;;;;;;;;;;;;;;24.48;31.06;100837.00;5073548;28;1049;-55
2021/01/13 10:50:10;;;;;;;;;;;;;;;24.52;31.38;100843.59;5085396;28;1176;-56
2021/01/13 10:52:38;;;;;;;;;;;;;;;24.54;31.05;100836.16;5089228;28;1100;-54
2021/01/13 10:55:06;;;;;;;;;;;;;;;24.55;30.79;100829.75;5079402;28;1894;-50
2021/01/13 10:57:32;;;;;;;;;;;;;;;24.55;30.83;100827.88;5090121;28;1101;-51
2021/01/13 11:00:05;;;;;;;;;;;;;;;24.56;30.85;100829.53;5083405;28;1334;-53
2021/01/13 11:02:30;;;;;;;;;;;;;;;24.59;30.44;100814.91;5085146;28;1510;-53
2021/01/13 11:04:59;;;;;;;;;;;;;;;24.62;30.81;100816.31;5075178;28;1078;-50
2021/01/13 11:07:25;;;;;;;;;;;;;;;24.63;30.90;100817.97;5058316;28;1466;-50
2021/01/13 11:09:51;;;;;;;;;;;;;;;24.64;30.24;100811.56;5057363;28;1466;-51
2021/01/13 11:12:19;;;;;;;;;;;;;;;24.64;30.46;100816.91;5056670;28;1221;-55
2021/01/13 11:14:46;;;;;;;;;;;;;;;24.64;30.62;100812.41;5057524;28;1185;-54
2021/01/13 11:17:14;;;;;;;;;;;;;;;24.66;30.39;100812.16;5068858;28;1898;-53
2021/01/13 11:19:41;;;;;;;;;;;;;;;24.65;29.98;100797.13;5060331;28;1308;-55
2021/01/13 11:22:06;;;;;;;;;;;;;;;24.64;30.09;100788.28;5057457;28;1365;-58
2021/01/13 11:24:36;;;;;;;;;;;;;;;24.68;30.22;100799.38;5057835;28;1271;-54
2021/01/13 11:27:03;;;;;;;;;;;;;;;24.71;30.66;100793.56;5064539;28;1087;-54
2021/01/13 11:29:30;;;;;;;;;;;;;;;24.72;30.30;100787.19;5087007;28;1276;-54
2021/01/13 11:31:56;;;;;;;;;;;;;;;24.75;29.98;100788.66;5085229;28;1323;-55
2021/01/13 11:34:22;;;;;;;;;;;;;;;24.75;30.23;100792.13;5085009;28;1215;-54
2021/01/13 11:36:53;;;;;;;;;;;;;;;24.82;30.12;100781.38;5068622;28;2279;-52
2021/01/13 11:39:22;;;;;;;;;;;;;;;24.79;29.79;100779.94;5062427;28;1451;-51
2021/01/13 11:41:47;;;;;;;;;;;;;;;24.82;29.62;100789.44;5070976;28;1209;-56
2021/01/13 11:44:16;;;;;;;;;;;;;;;24.81;29.65;100780.56;5057922;28;1284;-53
2021/01/13 11:46:45;;;;;;;;;;;;;;;24.79;29.29;100782.63;5065460;28;1145;-58
2021/01/13 11:49:25;;;;;;;;;;;;;;;24.75;29.52;100783.28;5066876;28;1390;-52
2021/01/13 11:51:52;;;;;;;;;;;;;;;24.72;29.42;100789.84;5067082;28;1197;-52
2021/01/13 11:54:27;;;;;;;;;;;;;;;24.66;29.32;100767.44;5065962;28;1255;-54
2021/01/13 11:56:53;;;;;;;;;;;;;;;24.68;29.35;100783.28;5068184;28;1969;-51
2021/01/13 11:59:25;;;;;;;;;;;;;;;24.69;29.38;100774.22;5064221;28;1296;-52
2021/01/13 12:01:51;;;;;;;;;;;;;;;24.68;28.98;100767.19;5045043;28;1468;-57
2021/01/13 12:04:16;;;;;;;;;;;;;;;24.70;29.04;100773.16;5062926;28;1182;-55
2021/01/13 12:06:53;;;;;;;;;;;;;;;24.76;29.36;100758.94;5065845;28;1183;-55
2021/01/13 12:09:18;;;;;;;;;;;;;;;24.77;29.38;100755.22;5059717;28;1296;-56
2021/01/13 12:11:43;;;;;;;;;;;;;;;24.82;29.46;100752.69;5076291;28;991;-56
2021/01/13 12:14:09;;;;;;;;;;;;;;;24.85;29.58;100754.13;5067690;28;1307;-54
2021/01/13 12:16:34;;;;;;;;;;;;;;;24.85;29.61;100741.53;5064488;28;1963;-53
2021/01/13 12:18:59;;;;;;;;;;;;;;;24.86;29.82;100742.38;5069503;28;1308;-55
2021/01/13 12:21:28;;;;;;;;;;;;;;;24.87;29.56;100738.66;5066861;28;1406;-52
2021/01/13 12:23:53;;;;;;;;;;;;;;;24.87;29.86;100734.09;5071765;28;1327;-52
2021/01/13 12:26:23;;;;;;;;;;;;;;;24.84;30.06;100734.53;5083647;28;1297;-52
2021/01/13 12:29:06;;;;;;;;;;;;;;;24.88;30.05;100737.63;5064660;28;1461;-56
2021/01/13 12:31:39;;;;;;;;;;;;;;;24.86;30.04;100729.78;5067576;28;1198;-55
2021/01/13 12:34:10;;;;;;;;;;;;;;;24.87;30.24;100718.00;5066317;28;1152;-54
2021/01/13 12:36:39;;;;;;;;;;;;;;;24.86;30.22;100710.19;5058951;28;1957;-52
2021/01/13 12:39:05;;;;;;;;;;;;;;;24.87;30.18;100701.91;5059158;28;1278;-56
2021/01/13 12:41:32;;;;;;;;;;;;;;;24.86;30.31;100702.16;5072042;28;1188;-56
2021/01/13 12:44:04;;;;;;;;;;;;;;;24.88;30.29;100695.50;5060072;28;1148;-57
2021/01/13 12:46:33;;;;;;;;;;;;;;;24.87;30.24;100688.50;5055914;28;1159;-54
2021/01/13 12:48:59;;;;;;;;;;;;;;;24.87;30.12;100696.56;5056166;28;1382;-57
2021/01/13 12:51:25;;;;;;;;;;;;;;;24.89;30.28;100682.94;5059715;28;1134;-58
2021/01/13 12:53:56;;;;;;;;;;;;;;;24.87;29.96;100676.97;5060902;28;1217;-56
2021/01/13 12:56:23;;;;;;;;;;;;;;;24.86;29.93;100678.81;5059313;28;1953;-52